Buffalo, WY (82840)

9:27 AM MDT on September 19, 2014 (GMT -0600)
Esponda Ranch | Change Station
CLOSE
Current Station
Personal Weather Station
Location: Buffalo, WY
Elevation: 4665 ft
Nearby Weather Stations

Elev 4665 ft 44.32 °N, 106.67 °W | Updated 1 minute ago

Partly Cloudy
Partly Cloudy
64.8 °F
Feels Like 64.8 °F
N
5.0
Wind Variable Wind from NNE
Gusts 5.0 mph

Today
High -- | Low -- °F
--% Chance of Precip.
Yesterday
High -- | Low -- °F
Precip. -- in
6:50 AM 7:09 PM
Waning Crescent, 18% visible
Pressure 29.81 in
Visibility 10.0 miles
Clouds Clear
Dew Point 54 °F
Humidity 69%
Rainfall 0.01 in
Snow Depth 0 in , 1 in , 0 in
UV 2 out of 12
Pollen 5.40 out of 12
Air Quality Not available.
Flu Activity Not available.
METAR KBYG 191453Z AUTO 34012KT 10SM CLR 18/09 A2996 RMK AO2 SLP092 T01830089 53010

More Conditions Fewer Conditions

Pressure 29.81 in
Visibility 10.0 miles
Clouds Clear
Dew Point 54 °F
Humidity 69%
Rainfall 0.01 in
Snow Depth 0 in , 1 in , 0 in
UV 2 out of 12
Pollen 5.40 out of 12
Air Quality Not available.
Flu Activity Not available.
METAR KBYG 191453Z AUTO 34012KT 10SM CLR 18/09 A2996 RMK AO2 SLP092 T01830089 53010

More Conditions Fewer Conditions

10-Day Weather Forecast

Almanac

Astronomy

Sep. 19, 2014 Rise Set
Actual Time 6:50 AM MDT 7:09 PM MDT
Civil Twilight 6:21 AM MDT 7:38 PM MDT
Nautical Twilight 5:46 AM MDT 8:12 PM MDT
Astronomical Twilight 5:11 AM MDT 8:47 PM MDT
Moon 2:30 AM MDT 4:46 PM MDT
Length of Visible Light 13h 17m
Length of Day
12h 19m
Tomorrow will be 3m 2s shorter.
Waning Crescent, 18% of the Moon is Illuminated
Today
Waning Crescent
Sep 24
New
Oct 1
First Quarter
Oct 8
Full
Oct 15
Last Quarter

Today's Extremes

State Highs State Lows

Community

WunderPhotos

Upload Photos

1,754,637 photos uploaded!

WunderBlogs® & News

By Dr. Jeff Masters
Director of Meteorology, Weather Underground
By Kari Strenfel
Meteorologist, Weather Underground
By Christopher C. Burt
Weather Historian, Weather Underground
September 19, 2014
September 19, 2014
September 19, 2014

Nearby

Snow Depth

Station Depth Elevation
Loomis Park 0 in 8240 ft
Little Warm 1 in 9370 ft
Beartooth Lake 0 in 9275 ft
Sage Creek Basin 0 in 7850 ft
Brooklyn Lake 0 in 10220 ft

Earthquake Activity

City Distance Mag. Time & Date
No recent earthquake activity has been reported nearby.
Minimum magnitude displayed is 2.5.

Coastal Water Temperatures

Place Temperature
No Stations Reporting

Nearby Weather Stations